Amargosa Valley, NV

12:09 PM PDT on August 24, 2016 (GMT -0700)
MesoWest | | Change Station

Elev 5489 ft 37.15 °N, 116.40 °W | Updated 54 minutes ago

Clear
Clear
82 °F
Feels Like 80 °F
N
12
Wind Variable Wind from NNW
Gusts 20.0 mph

Today
High -- | Low -- °F
--% Chance of Precip.
Yesterday
High -- | Low -- °F
Precip. -- in
Pressure 29.92 in
Visibility 10.0 miles
Clouds Clear
Heat Index 80 °F
Dew Point 26 °F
Humidity 13%
Rainfall in
Snow Depth Not available.
6:10 AM 7:24 PM
Waning Gibbous, 54% visible
METAR KDRA 241853Z AUTO 20009KT 10SM CLR 33/04 A3007 RMK AO2 SLP130 T03280039
Pressure 29.92 in
Visibility 10.0 miles
Clouds Clear
Heat Index 80 °F
Dew Point 26 °F
Humidity 13%
Rainfall in
Snow Depth Not available.
6:10 AM 7:24 PM
Waning Gibbous, 54% visible
METAR KDRA 241853Z AUTO 20009KT 10SM CLR 33/04 A3007 RMK AO2 SLP130 T03280039

10-Day Weather Forecast

Almanac

Astronomy

Aug. 24, 2016 Rise Set
Actual Time
Civil Twilight
Nautical Twilight
Astronomical Twilight
Moon
Length of Visible Light
Length of Day
Tomorrow will be .
, % of the Moon is Illuminated

Today's Extremes

State Highs State Lows

Community

WunderPhotos

Upload Photos

1,934,684 photos uploaded!

WunderBlog® & News

Nearby

Air Quality

  Air Quality AQ Index Pollutant
Not available.

Snow Depth

Station Depth Elevation

Earthquake Activity

City Distance Mag. Time & Date
Minimum magnitude displayed is 2.5.

Coastal Water Temperatures

Place Temperature

Stations

Nearby Weather Stations

Station Location Temp. Windchill Dew Point Humidity Wind Precip. Elev Updated Type
                   

Watches & Warnings

There are currently no watches in effect.